createdAt,value
2018-03-22T00:01:38.971Z,98.00
2018-03-22T00:04:07.382Z,97.80
2018-03-22T00:06:35.160Z,98.20
2018-03-22T00:09:02.762Z,97.80
2018-03-22T00:11:31.958Z,97.90
2018-03-22T00:14:00.313Z,97.50
2018-03-22T00:16:27.887Z,97.70
2018-03-22T00:18:55.972Z,97.60
2018-03-22T00:21:24.328Z,97.40
2018-03-22T00:23:51.893Z,97.30
2018-03-22T00:26:19.495Z,97.60
2018-03-22T00:28:47.065Z,97.50
2018-03-22T00:31:14.653Z,97.40
2018-03-22T00:33:42.302Z,97.20
2018-03-22T00:36:09.866Z,97.70
2018-03-22T00:38:37.429Z,97.60
2018-03-22T00:41:05.001Z,97.30
2018-03-22T00:43:32.521Z,97.20
2018-03-22T00:46:00.845Z,97.20
2018-03-22T00:48:28.405Z,97.20
2018-03-22T00:50:55.964Z,97.30
2018-03-22T00:53:23.549Z,97.20
2018-03-22T00:55:51.118Z,97.20
2018-03-22T00:58:19.445Z,97.00
2018-03-22T01:00:47.007Z,97.00
2018-03-22T01:03:14.768Z,96.80
2018-03-22T01:05:42.374Z,96.70
2018-03-22T01:08:09.939Z,96.70
2018-03-22T01:10:38.242Z,97.10
2018-03-22T01:13:05.834Z,96.90
2018-03-22T01:15:33.421Z,96.90
2018-03-22T01:18:01.046Z,97.00
2018-03-22T01:20:28.606Z,97.20
2018-03-22T01:22:56.198Z,97.00
2018-03-22T01:25:23.821Z,96.80
2018-03-22T01:27:51.380Z,97.10
2018-03-22T01:30:30.781Z,96.80
2018-03-22T01:32:59.126Z,97.10
2018-03-22T01:35:26.661Z,97.20
2018-03-22T01:37:54.233Z,97.00
2018-03-22T01:40:21.811Z,97.10
2018-03-22T01:42:49.378Z,96.90
2018-03-22T01:45:16.934Z,97.40
2018-03-22T01:47:44.496Z,97.10
2018-03-22T01:50:13.021Z,97.10
2018-03-22T01:52:52.474Z,97.10
2018-03-22T01:55:20.050Z,97.00
2018-03-22T01:57:47.921Z,96.80
2018-03-22T02:00:15.486Z,96.70
2018-03-22T02:02:43.029Z,96.90
2018-03-22T02:05:10.634Z,96.80
2018-03-22T02:07:38.181Z,97.30
2018-03-22T02:10:05.877Z,96.70
2018-03-22T02:12:34.185Z,97.10
2018-03-22T02:15:01.757Z,97.10
2018-03-22T02:17:30.120Z,96.80
2018-03-22T02:19:57.705Z,97.10
2018-03-22T02:22:25.264Z,96.90
2018-03-22T02:24:52.820Z,97.00
2018-03-22T02:27:20.378Z,96.70
2018-03-22T02:29:47.949Z,96.90
2018-03-22T02:32:15.520Z,97.00
2018-03-22T02:34:43.094Z,96.80
2018-03-22T02:37:10.664Z,97.10
2018-03-22T02:39:39.013Z,96.90
2018-03-22T02:42:06.602Z,96.90
2018-03-22T02:44:34.915Z,97.00
2018-03-22T02:47:02.497Z,97.00
2018-03-22T02:49:30.134Z,97.10
2018-03-22T02:51:57.722Z,97.30
2018-03-22T02:54:25.346Z,97.60
2018-03-22T02:56:52.912Z,97.30
2018-03-22T02:59:20.468Z,97.20
2018-03-22T03:01:48.043Z,97.20
2018-03-22T03:04:15.607Z,97.60
2018-03-22T03:06:43.924Z,97.00
2018-03-22T03:09:11.461Z,97.20
2018-03-22T03:11:39.045Z,97.20
2018-03-22T03:14:06.754Z,97.20
2018-03-22T03:16:34.306Z,97.50
2018-03-22T03:19:01.872Z,97.50
2018-03-22T03:21:29.433Z,97.00
2018-03-22T03:23:56.994Z,96.90
2018-03-22T03:26:24.550Z,96.70
2018-03-22T03:28:52.114Z,96.20
2018-03-22T03:31:19.675Z,96.40
2018-03-22T03:33:47.222Z,96.20
2018-03-22T03:36:14.778Z,96.60
2018-03-22T03:38:42.358Z,97.00
2018-03-22T03:41:10.106Z,96.30
2018-03-22T03:43:37.688Z,96.10
2018-03-22T03:46:05.242Z,96.00
2018-03-22T03:48:32.812Z,95.50
2018-03-22T03:51:00.374Z,95.10
2018-03-22T03:53:27.933Z,94.90
2018-03-22T03:55:55.510Z,95.00
2018-03-22T03:58:23.093Z,94.20
2018-03-22T04:00:50.657Z,94.60
2018-03-22T04:03:18.981Z,94.40
2018-03-22T04:05:46.717Z,94.40
2018-03-22T04:08:15.214Z,94.40
2018-03-22T04:10:42.813Z,94.40
2018-03-22T04:13:10.365Z,94.50
2018-03-22T04:15:37.945Z,94.70
2018-03-22T04:18:05.499Z,94.40
2018-03-22T04:20:33.068Z,94.50
2018-03-22T04:23:00.616Z,94.50
2018-03-22T04:25:28.180Z,94.70
2018-03-22T04:27:55.737Z,95.00
2018-03-22T04:30:23.335Z,95.10
2018-03-22T04:32:51.963Z,95.40
2018-03-22T04:35:19.516Z,95.40
2018-03-22T04:37:47.090Z,95.50
2018-03-22T04:40:14.638Z,95.40
2018-03-22T04:42:42.221Z,95.60
2018-03-22T04:45:09.788Z,95.40
2018-03-22T04:47:37.372Z,95.60
2018-03-22T04:50:05.131Z,95.60
2018-03-22T04:52:32.691Z,95.60
2018-03-22T04:55:00.257Z,95.90
2018-03-22T04:57:28.593Z,95.80
2018-03-22T04:59:56.149Z,95.80
2018-03-22T05:02:23.741Z,95.90
2018-03-22T05:04:51.453Z,96.00
2018-03-22T05:07:19.121Z,96.20
2018-03-22T05:09:46.663Z,96.10
2018-03-22T05:12:14.237Z,96.10
2018-03-22T05:14:41.943Z,96.00
2018-03-22T05:17:10.992Z,96.00
2018-03-22T05:19:38.548Z,96.00
2018-03-22T05:22:06.097Z,96.10
2018-03-22T05:24:33.674Z,96.00
2018-03-22T05:27:01.217Z,95.90
2018-03-22T05:29:28.785Z,96.10
2018-03-22T05:31:56.345Z,96.00
2018-03-22T05:34:23.924Z,95.90
2018-03-22T05:36:51.489Z,96.10
2018-03-22T05:39:19.062Z,96.20
2018-03-22T05:41:46.626Z,96.20
2018-03-22T05:44:14.196Z,96.10
2018-03-22T05:46:41.743Z,96.10
2018-03-22T05:49:09.330Z,96.20
2018-03-22T05:51:36.899Z,96.00
2018-03-22T05:54:05.226Z,96.30
2018-03-22T05:56:32.802Z,96.30
2018-03-22T05:59:00.340Z,96.10
2018-03-22T06:01:27.906Z,96.30
2018-03-22T06:03:55.453Z,96.50
2018-03-22T06:06:23.106Z,96.60
2018-03-22T06:08:50.716Z,97.20
2018-03-22T06:11:18.259Z,97.20
2018-03-22T06:13:45.804Z,97.40
2018-03-22T06:16:13.453Z,97.70
2018-03-22T06:18:41.016Z,98.10
2018-03-22T06:21:08.557Z,98.40
2018-03-22T06:23:36.211Z,98.40
2018-03-22T06:26:04.656Z,99.30
2018-03-22T06:28:32.378Z,99.30
2018-03-22T06:30:59.970Z,99.50
2018-03-22T06:33:28.437Z,99.80
2018-03-22T06:35:55.989Z,99.90
2018-03-22T06:38:23.569Z,99.90
2018-03-22T06:40:51.978Z,99.90
2018-03-22T06:43:19.566Z,99.90
2018-03-22T06:45:47.107Z,99.90
2018-03-22T06:48:15.516Z,99.90
2018-03-22T06:50:43.076Z,99.90
2018-03-22T06:53:10.672Z,99.90
2018-03-22T06:55:38.237Z,99.90
2018-03-22T06:58:05.801Z,99.90
2018-03-22T07:00:33.449Z,99.90
2018-03-22T07:03:01.070Z,99.90
2018-03-22T07:05:28.653Z,99.90
2018-03-22T07:07:56.366Z,99.90
2018-03-22T07:10:24.713Z,99.90
2018-03-22T07:12:52.300Z,99.90
2018-03-22T07:15:19.882Z,99.90
2018-03-22T07:17:48.353Z,99.90
2018-03-22T07:20:16.681Z,99.90
2018-03-22T07:22:44.258Z,99.90
2018-03-22T07:25:11.841Z,99.90
2018-03-22T07:27:39.417Z,99.90
2018-03-22T07:30:07.772Z,99.90
2018-03-22T07:32:35.305Z,99.90
2018-03-22T07:35:02.864Z,99.90
2018-03-22T07:37:30.440Z,99.90
2018-03-22T07:39:57.996Z,99.90
2018-03-22T07:42:25.569Z,99.90
2018-03-22T07:44:53.772Z,99.90
2018-03-22T07:47:21.407Z,99.90
2018-03-22T07:49:48.988Z,99.90
2018-03-22T07:52:17.320Z,99.90
2018-03-22T07:54:44.924Z,99.90
2018-03-22T07:57:13.233Z,99.90
2018-03-22T07:59:40.917Z,99.90
2018-03-22T08:02:08.488Z,99.90
2018-03-22T08:04:36.072Z,99.90
2018-03-22T08:07:04.428Z,99.90
2018-03-22T08:09:32.077Z,99.90
2018-03-22T08:11:59.614Z,99.90
2018-03-22T08:14:27.224Z,99.90
2018-03-22T08:16:54.788Z,99.90
2018-03-22T08:19:22.373Z,99.90
2018-03-22T08:21:50.687Z,99.90
2018-03-22T08:24:18.292Z,99.90
2018-03-22T08:26:45.841Z,99.90
2018-03-22T08:29:13.398Z,99.90
2018-03-22T08:31:40.954Z,99.90
2018-03-22T08:34:08.554Z,99.90
2018-03-22T08:36:36.863Z,99.90
2018-03-22T08:39:04.418Z,99.90
2018-03-22T08:41:31.990Z,99.90
2018-03-22T08:43:59.549Z,99.90
2018-03-22T08:46:27.218Z,99.90
2018-03-22T08:48:54.803Z,99.90
2018-03-22T08:51:22.365Z,99.90
2018-03-22T08:53:49.929Z,99.90
2018-03-22T08:56:18.171Z,99.90
2018-03-22T08:58:45.734Z,99.90
2018-03-22T09:01:13.291Z,99.90
2018-03-22T09:03:40.833Z,99.90
2018-03-22T09:06:08.509Z,99.90
2018-03-22T09:08:36.081Z,99.90
2018-03-22T09:11:03.638Z,99.90
2018-03-22T09:13:31.245Z,99.90
2018-03-22T09:15:59.583Z,99.90
2018-03-22T09:18:27.317Z,99.90
2018-03-22T09:20:54.911Z,99.90
2018-03-22T09:23:22.461Z,99.90
2018-03-22T09:25:50.013Z,99.90
2018-03-22T09:28:17.608Z,99.90
2018-03-22T09:30:45.221Z,99.90
2018-03-22T09:33:12.806Z,99.90
2018-03-22T09:35:40.384Z,99.90
2018-03-22T09:38:07.965Z,99.90
2018-03-22T09:40:36.470Z,99.90
2018-03-22T09:43:04.085Z,99.90
2018-03-22T09:45:31.629Z,99.90
2018-03-22T09:47:59.259Z,99.90
2018-03-22T09:50:26.870Z,99.90
2018-03-22T09:52:54.426Z,99.90
2018-03-22T09:55:21.997Z,99.90
2018-03-22T09:57:49.602Z,99.90
2018-03-22T10:00:17.181Z,99.90
2018-03-22T10:02:44.740Z,99.90
2018-03-22T10:05:12.327Z,99.90
2018-03-22T10:07:40.127Z,99.90
2018-03-22T10:10:08.517Z,99.90
2018-03-22T10:12:36.064Z,99.90
2018-03-22T10:15:04.401Z,99.90
2018-03-22T10:17:31.957Z,99.90
2018-03-22T10:19:59.533Z,99.90
2018-03-22T10:22:27.092Z,99.90
2018-03-22T10:24:54.917Z,99.90
2018-03-22T10:27:22.480Z,99.90
2018-03-22T10:29:50.053Z,99.90
2018-03-22T10:32:17.616Z,99.90
2018-03-22T10:34:46.041Z,99.90
2018-03-22T10:37:14.383Z,99.90
2018-03-22T10:39:41.941Z,99.90
2018-03-22T10:42:09.500Z,99.90
2018-03-22T10:44:37.063Z,99.90
2018-03-22T10:47:04.620Z,99.90
2018-03-22T10:49:32.163Z,99.90
2018-03-22T10:51:59.726Z,99.90
2018-03-22T10:54:27.335Z,99.90
2018-03-22T10:56:55.671Z,99.90
2018-03-22T10:59:23.431Z,99.90
2018-03-22T11:01:56.675Z,99.90
2018-03-22T11:04:25.058Z,99.90
2018-03-22T11:06:54.099Z,99.90
2018-03-22T11:09:21.681Z,99.90
2018-03-22T11:11:49.220Z,99.90
2018-03-22T11:14:16.829Z,99.90
2018-03-22T11:16:45.158Z,99.90
2018-03-22T11:19:12.750Z,99.90
2018-03-22T11:21:40.290Z,99.90
2018-03-22T11:24:08.807Z,99.90
2018-03-22T11:26:37.420Z,99.90
2018-03-22T11:29:04.984Z,99.90
2018-03-22T11:31:32.572Z,99.90
2018-03-22T11:34:00.138Z,99.90
2018-03-22T11:36:27.726Z,99.90
2018-03-22T11:38:55.337Z,99.90
2018-03-22T11:41:22.966Z,99.90
2018-03-22T11:43:52.113Z,99.90
2018-03-22T11:46:19.690Z,99.90
2018-03-22T11:48:47.248Z,99.90
2018-03-22T11:51:15.582Z,99.90
2018-03-22T11:53:43.148Z,99.90
2018-03-22T11:56:10.701Z,99.90
2018-03-22T11:58:38.238Z,99.90
2018-03-22T12:01:05.819Z,99.90
2018-03-22T12:03:33.365Z,99.90
2018-03-22T12:06:00.959Z,99.90
2018-03-22T12:08:28.598Z,99.90
2018-03-22T12:10:56.844Z,99.90
2018-03-22T12:13:25.153Z,99.90
2018-03-22T12:15:52.736Z,99.90
2018-03-22T12:18:20.363Z,99.90
2018-03-22T12:20:47.902Z,99.90
2018-03-22T12:23:16.262Z,99.90
2018-03-22T12:25:43.793Z,99.90
2018-03-22T12:28:11.366Z,99.90
2018-03-22T12:30:38.912Z,99.90
2018-03-22T12:33:06.486Z,99.90
2018-03-22T12:35:34.045Z,99.90
2018-03-22T12:38:01.605Z,99.90
2018-03-22T12:40:29.192Z,99.90
2018-03-22T12:42:56.754Z,99.90
2018-03-22T12:45:25.085Z,99.90
2018-03-22T12:47:52.675Z,99.90
2018-03-22T12:50:20.258Z,99.90
2018-03-22T12:52:48.624Z,99.90
2018-03-22T12:55:16.343Z,99.90
2018-03-22T12:57:43.994Z,99.90
2018-03-22T13:00:11.624Z,99.90
2018-03-22T13:02:40.078Z,99.90
2018-03-22T13:05:07.637Z,99.90
2018-03-22T13:07:35.191Z,99.90
2018-03-22T13:10:02.754Z,99.90
2018-03-22T13:12:30.338Z,99.90
2018-03-22T13:14:57.898Z,99.90
2018-03-22T13:17:25.461Z,99.90
2018-03-22T13:19:53.794Z,99.90
2018-03-22T13:22:21.361Z,99.90
2018-03-22T13:24:48.912Z,99.90
2018-03-22T13:27:16.480Z,99.90
2018-03-22T13:29:44.017Z,99.90
2018-03-22T13:32:11.593Z,99.90
2018-03-22T13:34:39.145Z,99.90
2018-03-22T13:37:06.731Z,99.90
2018-03-22T13:39:34.268Z,99.90
2018-03-22T13:42:01.841Z,99.90
2018-03-22T13:44:29.502Z,99.90
2018-03-22T13:46:57.073Z,99.90
2018-03-22T13:49:24.637Z,99.90
2018-03-22T13:51:52.192Z,99.90
2018-03-22T13:54:19.773Z,99.90
2018-03-22T13:56:48.110Z,99.90
2018-03-22T13:59:15.708Z,99.90
2018-03-22T14:01:43.249Z,99.90
2018-03-22T14:04:10.854Z,99.90
2018-03-22T14:06:40.397Z,99.90
2018-03-22T14:09:08.805Z,99.90
2018-03-22T14:11:36.362Z,99.90
2018-03-22T14:14:04.031Z,99.90
2018-03-22T14:16:31.688Z,99.90
2018-03-22T14:18:59.270Z,99.90
2018-03-22T14:21:26.871Z,99.90
2018-03-22T14:23:54.437Z,99.90
2018-03-22T14:26:22.014Z,99.90
2018-03-22T14:28:50.567Z,99.90
2018-03-22T14:31:18.129Z,99.90
2018-03-22T14:33:45.712Z,99.90
2018-03-22T14:36:13.313Z,99.90
2018-03-22T14:38:41.650Z,99.90
2018-03-22T14:41:09.265Z,99.90
2018-03-22T14:43:37.633Z,99.90
2018-03-22T14:46:06.045Z,99.90
2018-03-22T14:48:33.604Z,99.90
2018-03-22T14:51:01.168Z,99.90
2018-03-22T14:53:28.814Z,99.90
2018-03-22T14:55:56.360Z,99.90
2018-03-22T14:58:23.955Z,99.90
2018-03-22T15:00:51.513Z,99.90
2018-03-22T15:03:19.166Z,99.90
2018-03-22T15:05:46.912Z,99.90
2018-03-22T15:08:15.524Z,99.90
2018-03-22T15:10:43.091Z,99.90
2018-03-22T15:13:10.654Z,99.90
2018-03-22T15:15:38.420Z,99.90
2018-03-22T15:18:05.986Z,99.90
2018-03-22T15:20:33.544Z,99.90
2018-03-22T15:23:01.105Z,99.90
2018-03-22T15:25:28.680Z,99.90
2018-03-22T15:27:56.309Z,99.90
2018-03-22T15:30:23.962Z,99.90
2018-03-22T15:32:51.534Z,99.90
2018-03-22T15:35:19.104Z,99.90
2018-03-22T15:37:46.665Z,99.90
2018-03-22T15:40:14.243Z,99.90
2018-03-22T15:42:41.793Z,99.90
2018-03-22T15:45:09.378Z,99.90
2018-03-22T15:47:37.072Z,99.90
2018-03-22T15:50:04.622Z,99.90
2018-03-22T15:52:32.949Z,99.90
2018-03-22T15:55:00.501Z,99.90
2018-03-22T15:57:28.075Z,99.90
2018-03-22T15:59:55.666Z,99.90
2018-03-22T16:02:23.243Z,99.90
2018-03-22T16:04:50.778Z,99.90
2018-03-22T16:07:18.350Z,99.90
2018-03-22T16:09:46.666Z,99.90
2018-03-22T16:12:14.257Z,99.90
2018-03-22T16:14:41.813Z,99.90
2018-03-22T16:17:09.385Z,99.90
2018-03-22T16:19:36.961Z,99.90
2018-03-22T16:22:04.614Z,99.90
2018-03-22T16:24:32.189Z,99.90
2018-03-22T16:26:59.784Z,99.90
2018-03-22T16:29:27.394Z,99.90
2018-03-22T16:31:54.958Z,99.90
2018-03-22T16:34:22.578Z,99.90
2018-03-22T16:36:50.201Z,99.90
2018-03-22T16:39:17.774Z,99.90
2018-03-22T16:41:45.333Z,99.90
2018-03-22T16:44:13.047Z,99.90
2018-03-22T16:46:40.708Z,99.90
2018-03-22T16:49:08.270Z,99.90
2018-03-22T16:51:35.849Z,99.90
2018-03-22T16:54:03.438Z,99.90
2018-03-22T16:56:31.240Z,99.90
2018-03-22T16:58:58.803Z,99.90
2018-03-22T17:01:26.379Z,99.90
2018-03-22T17:03:53.929Z,99.90
2018-03-22T17:06:21.490Z,99.90
2018-03-22T17:08:49.055Z,99.90
2018-03-22T17:11:16.637Z,99.90
2018-03-22T17:13:44.964Z,99.90
2018-03-22T17:16:12.619Z,99.90
2018-03-22T17:18:40.322Z,99.90
2018-03-22T17:21:07.978Z,99.90
2018-03-22T17:23:35.605Z,99.90
2018-03-22T17:26:03.240Z,99.90
2018-03-22T17:28:31.605Z,99.90
2018-03-22T17:30:59.954Z,99.90
2018-03-22T17:33:27.516Z,99.90
2018-03-22T17:35:55.074Z,99.90
2018-03-22T17:38:22.673Z,99.90
2018-03-22T17:40:52.211Z,99.90
2018-03-22T17:43:19.793Z,99.90
2018-03-22T17:45:47.342Z,99.90
2018-03-22T17:48:14.952Z,99.90
2018-03-22T17:50:43.270Z,99.90
2018-03-22T17:53:10.841Z,99.90
2018-03-22T17:55:38.409Z,99.90
2018-03-22T17:58:06.030Z,99.90
2018-03-22T18:00:34.350Z,99.90
2018-03-22T18:03:01.932Z,99.90
2018-03-22T18:05:29.580Z,99.90
2018-03-22T18:07:57.161Z,99.90
2018-03-22T18:10:24.730Z,99.90
2018-03-22T18:12:52.282Z,99.90
2018-03-22T18:15:19.955Z,99.90
2018-03-22T18:17:47.500Z,99.90
2018-03-22T18:20:15.101Z,99.90
2018-03-22T18:22:42.680Z,99.90
2018-03-22T18:25:10.255Z,99.90
2018-03-22T18:27:37.819Z,99.90
2018-03-22T18:30:05.415Z,99.90
2018-03-22T18:32:33.092Z,99.90
2018-03-22T18:35:01.504Z,99.90
2018-03-22T18:37:29.113Z,99.90
2018-03-22T18:39:59.733Z,99.90
2018-03-22T18:42:27.336Z,99.90
2018-03-22T18:44:55.677Z,99.90
2018-03-22T18:47:24.015Z,99.90
2018-03-22T18:49:51.581Z,99.90
2018-03-22T18:52:19.177Z,99.90
2018-03-22T18:54:46.749Z,99.90
2018-03-22T18:57:15.168Z,99.90
2018-03-22T18:59:42.727Z,99.90
2018-03-22T19:02:10.354Z,99.90
2018-03-22T19:04:38.666Z,99.90
2018-03-22T19:07:06.328Z,99.90
2018-03-22T19:09:33.901Z,99.90
2018-03-22T19:12:01.471Z,99.90
2018-03-22T19:14:29.018Z,99.90
2018-03-22T19:16:56.595Z,99.90
2018-03-22T19:19:24.162Z,99.90
2018-03-22T19:21:51.715Z,99.90
2018-03-22T19:24:19.293Z,99.90
2018-03-22T19:26:46.868Z,99.90
2018-03-22T19:29:15.339Z,99.90
2018-03-22T19:31:42.922Z,99.90
2018-03-22T19:34:11.274Z,99.90
2018-03-22T19:36:38.851Z,99.90
2018-03-22T19:39:07.197Z,99.90
2018-03-22T19:41:34.769Z,99.90
2018-03-22T19:44:02.362Z,99.90
2018-03-22T19:46:30.710Z,99.90
2018-03-22T19:48:58.296Z,99.90
2018-03-22T19:51:26.714Z,99.90
2018-03-22T19:53:54.319Z,99.90
2018-03-22T19:56:21.874Z,99.90
2018-03-22T19:58:49.487Z,99.90
2018-03-22T20:01:17.054Z,99.90
2018-03-22T20:03:44.623Z,99.90
2018-03-22T20:06:12.221Z,99.90
2018-03-22T20:08:45.781Z,99.90
2018-03-22T20:11:13.410Z,99.90
2018-03-22T20:13:40.969Z,99.90
2018-03-22T20:16:09.769Z,99.90
2018-03-22T20:18:37.350Z,99.90
2018-03-22T20:21:04.934Z,99.90
2018-03-22T20:23:32.498Z,99.90
2018-03-22T20:26:00.073Z,99.90
2018-03-22T20:28:27.646Z,99.90
2018-03-22T20:30:56.011Z,99.90
2018-03-22T20:33:23.579Z,99.90
2018-03-22T20:35:51.947Z,99.90
2018-03-22T20:38:19.517Z,99.90
2018-03-22T20:40:47.119Z,99.90
2018-03-22T20:43:14.762Z,99.90
2018-03-22T20:45:43.143Z,99.90
2018-03-22T20:48:10.725Z,99.90
2018-03-22T20:50:38.318Z,99.90
2018-03-22T20:53:05.909Z,99.90
2018-03-22T20:55:34.308Z,99.90
2018-03-22T20:58:02.366Z,99.90
2018-03-22T21:00:30.690Z,99.90
2018-03-22T21:02:58.273Z,99.90
2018-03-22T21:05:25.874Z,99.90
2018-03-22T21:07:53.485Z,99.90
2018-03-22T21:10:21.046Z,99.90
2018-03-22T21:12:48.638Z,99.90
2018-03-22T21:15:16.217Z,99.90
2018-03-22T21:17:43.847Z,99.90
2018-03-22T21:20:11.467Z,99.90
2018-03-22T21:22:39.038Z,99.90
2018-03-22T21:25:06.611Z,99.90
2018-03-22T21:27:34.286Z,99.90
2018-03-22T21:30:01.829Z,99.90
2018-03-22T21:32:29.420Z,99.90
2018-03-22T21:34:57.756Z,99.90
2018-03-22T21:37:25.352Z,99.90
2018-03-22T21:39:53.109Z,99.90
2018-03-22T21:42:21.641Z,99.90
2018-03-22T21:44:49.261Z,99.90
2018-03-22T21:50:13.154Z,99.90
2018-03-22T21:52:45.594Z,99.90
2018-03-22T21:55:13.173Z,99.90
2018-03-22T21:57:41.505Z,99.90
2018-03-22T22:00:09.202Z,99.90
2018-03-22T22:02:36.741Z,99.90
2018-03-22T22:05:04.334Z,99.90
2018-03-22T22:07:31.900Z,99.90
2018-03-22T22:09:59.490Z,99.90
2018-03-22T22:12:27.067Z,99.90
2018-03-22T22:14:54.773Z,99.90
2018-03-22T22:17:22.359Z,99.90
2018-03-22T22:19:49.962Z,99.90
2018-03-22T22:22:17.632Z,99.90
2018-03-22T22:24:45.189Z,99.90
2018-03-22T22:27:12.785Z,99.90
2018-03-22T22:29:41.373Z,99.90
2018-03-22T22:32:08.937Z,99.90
2018-03-22T22:34:37.268Z,99.90
2018-03-22T22:37:04.861Z,99.90
2018-03-22T22:39:32.412Z,99.90
2018-03-22T22:42:00.003Z,99.90
2018-03-22T22:44:27.556Z,99.90
2018-03-22T22:47:09.981Z,99.90
2018-03-22T22:49:38.333Z,99.90
2018-03-22T22:52:06.072Z,99.90
2018-03-22T22:54:34.464Z,99.90
2018-03-22T22:57:13.796Z,99.90
2018-03-22T22:59:42.182Z,99.90
2018-03-22T23:02:09.774Z,99.90
2018-03-22T23:04:38.088Z,99.90
2018-03-22T23:07:05.681Z,99.90
2018-03-22T23:09:33.272Z,99.90
2018-03-22T23:12:00.899Z,99.90
2018-03-22T23:14:28.457Z,99.90
2018-03-22T23:16:56.033Z,99.90
2018-03-22T23:19:23.642Z,99.90
2018-03-22T23:21:51.209Z,99.90
2018-03-22T23:24:18.789Z,99.90
2018-03-22T23:26:46.357Z,99.90
2018-03-22T23:29:13.905Z,99.90
2018-03-22T23:31:41.489Z,99.90
2018-03-22T23:34:09.053Z,99.90
2018-03-22T23:36:36.601Z,99.90
2018-03-22T23:39:04.190Z,99.90
2018-03-22T23:41:31.749Z,99.90
2018-03-22T23:44:00.085Z,99.90
2018-03-22T23:46:27.645Z,99.90
2018-03-22T23:48:55.246Z,99.90
2018-03-22T23:51:22.814Z,99.90
2018-03-22T23:53:51.313Z,99.90
2018-03-22T23:56:19.730Z,99.90
2018-03-22T23:58:47.345Z,99.90
